Terminal Aerodrome Forecast
Issued by NWS Hastings, NE

Home | Current Version | Previous Version | Text Only | Print | Product List | Glossary On
Versions: 1 2 3 4 5 6 7 8 9 10 11 12 13 14 15 16 17 18 19 20 21 22 23 24 25 26 27 28 29
112
FTUS43 KGID 201738
TAFGRI
TAF
KGRI 201738Z 2018/2118 14013G21KT P6SM OVC250
     FM210000 11009KT P6SM VCSH OVC100
     FM210600 10007KT 6SM -SHRA OVC050
     FM211100 09007KT 5SM -SHRA OVC025
     FM211500 09009KT P6SM VCSH OVC008=

USA.gov is the U.S. government's official web portal to all federal, state and local government web resources and services.